sensor_id;sensor_type;location;lat;lon;timestamp;P1;durP1;ratioP1;P2;durP2;ratioP2
69534;SDS011;56754;51.568;5.048;2023-06-26T00:02:20;6.00;;;3.60;;
69534;SDS011;56754;51.568;5.048;2023-06-26T00:04:45;5.82;;;3.15;;
69534;SDS011;56754;51.568;5.048;2023-06-26T00:07:11;5.90;;;3.40;;
69534;SDS011;56754;51.568;5.048;2023-06-26T00:09:36;6.03;;;3.57;;
69534;SDS011;56754;51.568;5.048;2023-06-26T00:12:02;5.93;;;3.70;;
69534;SDS011;56754;51.568;5.048;2023-06-26T00:14:28;6.00;;;3.40;;
69534;SDS011;56754;51.568;5.048;2023-06-26T00:16:53;6.50;;;3.67;;
69534;SDS011;56754;51.568;5.048;2023-06-26T00:19:18;9.37;;;3.47;;
69534;SDS011;56754;51.568;5.048;2023-06-26T00:21:44;7.85;;;3.80;;
69534;SDS011;56754;51.568;5.048;2023-06-26T00:24:09;6.07;;;3.60;;
69534;SDS011;56754;51.568;5.048;2023-06-26T00:26:35;5.67;;;3.30;;
69534;SDS011;56754;51.568;5.048;2023-06-26T00:29:00;6.20;;;3.77;;
69534;SDS011;56754;51.568;5.048;2023-06-26T00:31:25;6.53;;;4.00;;
69534;SDS011;56754;51.568;5.048;2023-06-26T00:33:51;6.13;;;4.00;;
69534;SDS011;56754;51.568;5.048;2023-06-26T00:36:16;7.30;;;3.90;;
69534;SDS011;56754;51.568;5.048;2023-06-26T00:38:41;5.80;;;3.70;;
69534;SDS011;56754;51.568;5.048;2023-06-26T00:41:07;6.63;;;3.73;;
69534;SDS011;56754;51.568;5.048;2023-06-26T00:43:32;6.30;;;3.67;;
69534;SDS011;56754;51.568;5.048;2023-06-26T00:45:57;6.50;;;3.83;;
69534;SDS011;56754;51.568;5.048;2023-06-26T00:48:23;6.38;;;3.63;;
69534;SDS011;56754;51.568;5.048;2023-06-26T00:50:48;6.53;;;4.00;;
69534;SDS011;56754;51.568;5.048;2023-06-26T00:53:14;7.50;;;3.90;;
69534;SDS011;56754;51.568;5.048;2023-06-26T00:55:39;5.85;;;3.50;;
69534;SDS011;56754;51.568;5.048;2023-06-26T00:58:05;6.10;;;3.67;;
69534;SDS011;56754;51.568;5.048;2023-06-26T01:00:30;6.37;;;3.73;;
69534;SDS011;56754;51.568;5.048;2023-06-26T01:02:56;6.78;;;3.65;;
69534;SDS011;56754;51.568;5.048;2023-06-26T01:05:21;6.00;;;3.60;;
69534;SDS011;56754;51.568;5.048;2023-06-26T01:07:47;5.47;;;3.40;;
69534;SDS011;56754;51.568;5.048;2023-06-26T01:10:13;5.45;;;3.10;;
69534;SDS011;56754;51.568;5.048;2023-06-26T01:12:39;6.37;;;3.83;;
69534;SDS011;56754;51.568;5.048;2023-06-26T01:15:08;6.07;;;3.63;;
69534;SDS011;56754;51.568;5.048;2023-06-26T01:17:34;5.90;;;3.78;;
69534;SDS011;56754;51.568;5.048;2023-06-26T01:20:03;5.97;;;3.47;;
69534;SDS011;56754;51.568;5.048;2023-06-26T01:27:34;6.53;;;3.50;;
69534;SDS011;56754;51.568;5.048;2023-06-26T01:30:00;6.77;;;3.33;;
69534;SDS011;56754;51.568;5.048;2023-06-26T01:32:28;6.78;;;3.65;;
69534;SDS011;56754;51.568;5.048;2023-06-26T01:34:54;6.72;;;3.80;;
69534;SDS011;56754;51.568;5.048;2023-06-26T01:37:20;6.53;;;3.50;;
69534;SDS011;56754;51.568;5.048;2023-06-26T01:39:46;5.77;;;3.27;;
69534;SDS011;56754;51.568;5.048;2023-06-26T01:42:11;5.50;;;3.30;;
69534;SDS011;56754;51.568;5.048;2023-06-26T01:44:37;6.13;;;3.63;;
69534;SDS011;56754;51.568;5.048;2023-06-26T01:47:09;5.50;;;3.42;;
69534;SDS011;56754;51.568;5.048;2023-06-26T01:55:21;6.32;;;3.50;;
69534;SDS011;56754;51.568;5.048;2023-06-26T01:57:54;6.43;;;3.27;;
69534;SDS011;56754;51.568;5.048;2023-06-26T02:00:21;5.35;;;3.13;;
69534;SDS011;56754;51.568;5.048;2023-06-26T02:02:49;6.68;;;3.20;;
69534;SDS011;56754;51.568;5.048;2023-06-26T02:05:14;6.60;;;3.23;;
69534;SDS011;56754;51.568;5.048;2023-06-26T02:07:39;5.97;;;3.17;;
69534;SDS011;56754;51.568;5.048;2023-06-26T02:10:05;6.55;;;3.35;;
69534;SDS011;56754;51.568;5.048;2023-06-26T02:12:31;5.30;;;2.73;;
69534;SDS011;56754;51.568;5.048;2023-06-26T02:14:56;5.60;;;3.20;;
69534;SDS011;56754;51.568;5.048;2023-06-26T02:17:21;4.90;;;2.80;;
69534;SDS011;56754;51.568;5.048;2023-06-26T02:19:47;5.83;;;3.10;;
69534;SDS011;56754;51.568;5.048;2023-06-26T02:22:16;6.07;;;3.20;;
69534;SDS011;56754;51.568;5.048;2023-06-26T02:24:44;6.88;;;2.90;;
69534;SDS011;56754;51.568;5.048;2023-06-26T02:27:10;5.75;;;3.13;;
69534;SDS011;56754;51.568;5.048;2023-06-26T02:29:36;5.40;;;3.10;;
69534;SDS011;56754;51.568;5.048;2023-06-26T02:32:02;6.20;;;3.30;;
69534;SDS011;56754;51.568;5.048;2023-06-26T02:34:27;6.03;;;3.20;;
69534;SDS011;56754;51.568;5.048;2023-06-26T02:36:52;6.60;;;3.40;;
69534;SDS011;56754;51.568;5.048;2023-06-26T02:39:18;6.03;;;2.93;;
69534;SDS011;56754;51.568;5.048;2023-06-26T02:41:43;5.90;;;2.80;;
69534;SDS011;56754;51.568;5.048;2023-06-26T02:44:08;6.93;;;3.20;;
69534;SDS011;56754;51.568;5.048;2023-06-26T02:46:34;5.93;;;3.23;;
69534;SDS011;56754;51.568;5.048;2023-06-26T02:48:59;5.38;;;2.92;;
69534;SDS011;56754;51.568;5.048;2023-06-26T02:51:24;5.97;;;2.93;;
69534;SDS011;56754;51.568;5.048;2023-06-26T02:53:50;5.33;;;2.90;;
69534;SDS011;56754;51.568;5.048;2023-06-26T02:56:15;6.00;;;2.87;;
69534;SDS011;56754;51.568;5.048;2023-06-26T02:58:40;5.63;;;2.90;;
69534;SDS011;56754;51.568;5.048;2023-06-26T03:01:06;6.67;;;3.13;;
69534;SDS011;56754;51.568;5.048;2023-06-26T03:03:31;6.20;;;2.80;;
69534;SDS011;56754;51.568;5.048;2023-06-26T03:05:56;6.20;;;3.00;;
69534;SDS011;56754;51.568;5.048;2023-06-26T03:08:21;6.15;;;3.10;;
69534;SDS011;56754;51.568;5.048;2023-06-26T03:10:47;5.43;;;2.90;;
69534;SDS011;56754;51.568;5.048;2023-06-26T03:13:12;7.03;;;3.10;;
69534;SDS011;56754;51.568;5.048;2023-06-26T03:15:37;5.30;;;3.00;;
69534;SDS011;56754;51.568;5.048;2023-06-26T03:18:03;4.80;;;2.50;;
69534;SDS011;56754;51.568;5.048;2023-06-26T03:20:28;5.90;;;3.20;;
69534;SDS011;56754;51.568;5.048;2023-06-26T03:22:53;6.37;;;2.97;;
69534;SDS011;56754;51.568;5.048;2023-06-26T03:25:19;6.80;;;2.85;;
69534;SDS011;56754;51.568;5.048;2023-06-26T03:27:44;6.13;;;2.70;;
69534;SDS011;56754;51.568;5.048;2023-06-26T03:30:09;7.07;;;2.73;;
69534;SDS011;56754;51.568;5.048;2023-06-26T03:32:35;6.65;;;3.22;;
69534;SDS011;56754;51.568;5.048;2023-06-26T03:35:01;5.20;;;2.60;;
69534;SDS011;56754;51.568;5.048;2023-06-26T03:37:26;7.47;;;3.23;;
69534;SDS011;56754;51.568;5.048;2023-06-26T03:39:51;8.30;;;3.17;;
69534;SDS011;56754;51.568;5.048;2023-06-26T03:42:17;6.10;;;2.90;;
69534;SDS011;56754;51.568;5.048;2023-06-26T03:44:42;8.13;;;2.77;;
69534;SDS011;56754;51.568;5.048;2023-06-26T03:47:08;6.20;;;2.55;;
69534;SDS011;56754;51.568;5.048;2023-06-26T03:49:33;6.90;;;2.90;;
69534;SDS011;56754;51.568;5.048;2023-06-26T03:51:58;7.83;;;3.10;;
69534;SDS011;56754;51.568;5.048;2023-06-26T03:54:23;7.47;;;3.03;;
69534;SDS011;56754;51.568;5.048;2023-06-26T03:56:49;7.87;;;3.20;;
69534;SDS011;56754;51.568;5.048;2023-06-26T03:59:14;6.70;;;2.90;;
69534;SDS011;56754;51.568;5.048;2023-06-26T04:01:39;7.80;;;3.10;;
69534;SDS011;56754;51.568;5.048;2023-06-26T04:04:05;7.90;;;3.23;;
69534;SDS011;56754;51.568;5.048;2023-06-26T04:06:30;9.20;;;3.07;;
69534;SDS011;56754;51.568;5.048;2023-06-26T04:08:55;6.13;;;3.07;;
69534;SDS011;56754;51.568;5.048;2023-06-26T04:11:21;7.83;;;2.90;;
69534;SDS011;56754;51.568;5.048;2023-06-26T04:13:46;7.30;;;2.50;;
69534;SDS011;56754;51.568;5.048;2023-06-26T04:16:11;10.60;;;2.90;;
69534;SDS011;56754;51.568;5.048;2023-06-26T04:18:37;8.53;;;3.20;;
69534;SDS011;56754;51.568;5.048;2023-06-26T04:23:33;8.13;;;3.07;;
69534;SDS011;56754;51.568;5.048;2023-06-26T04:25:59;7.15;;;3.03;;
69534;SDS011;56754;51.568;5.048;2023-06-26T04:28:24;5.77;;;2.80;;
69534;SDS011;56754;51.568;5.048;2023-06-26T04:30:50;7.53;;;2.90;;
69534;SDS011;56754;51.568;5.048;2023-06-26T04:33:16;7.40;;;2.75;;
69534;SDS011;56754;51.568;5.048;2023-06-26T04:35:41;10.90;;;2.73;;
69534;SDS011;56754;51.568;5.048;2023-06-26T04:38:06;8.90;;;2.70;;
69534;SDS011;56754;51.568;5.048;2023-06-26T04:40:32;6.57;;;3.00;;
69534;SDS011;56754;51.568;5.048;2023-06-26T04:42:57;8.03;;;2.60;;
69534;SDS011;56754;51.568;5.048;2023-06-26T04:45:22;9.50;;;2.97;;
69534;SDS011;56754;51.568;5.048;2023-06-26T04:47:48;8.20;;;2.80;;
69534;SDS011;56754;51.568;5.048;2023-06-26T04:50:15;8.27;;;2.80;;
69534;SDS011;56754;51.568;5.048;2023-06-26T04:52:41;6.03;;;2.70;;
69534;SDS011;56754;51.568;5.048;2023-06-26T04:55:06;13.03;;;2.80;;
69534;SDS011;56754;51.568;5.048;2023-06-26T04:57:31;7.60;;;3.17;;
69534;SDS011;56754;51.568;5.048;2023-06-26T04:59:57;8.43;;;2.40;;
69534;SDS011;56754;51.568;5.048;2023-06-26T05:02:22;8.10;;;2.55;;
69534;SDS011;56754;51.568;5.048;2023-06-26T05:04:47;9.43;;;2.73;;
69534;SDS011;56754;51.568;5.048;2023-06-26T05:07:13;8.43;;;2.40;;
69534;SDS011;56754;51.568;5.048;2023-06-26T05:09:38;6.63;;;2.57;;
69534;SDS011;56754;51.568;5.048;2023-06-26T05:12:03;8.33;;;2.37;;
69534;SDS011;56754;51.568;5.048;2023-06-26T05:14:29;10.20;;;2.53;;
69534;SDS011;56754;51.568;5.048;2023-06-26T05:16:54;7.67;;;2.30;;
69534;SDS011;56754;51.568;5.048;2023-06-26T05:19:20;9.83;;;2.70;;
69534;SDS011;56754;51.568;5.048;2023-06-26T05:21:45;9.67;;;2.57;;
69534;SDS011;56754;51.568;5.048;2023-06-26T05:24:11;5.30;;;2.08;;
69534;SDS011;56754;51.568;5.048;2023-06-26T05:26:38;7.77;;;2.20;;
69534;SDS011;56754;51.568;5.048;2023-06-26T05:29:04;6.53;;;2.20;;
69534;SDS011;56754;51.568;5.048;2023-06-26T05:31:30;10.97;;;2.50;;
69534;SDS011;56754;51.568;5.048;2023-06-26T05:33:58;8.15;;;2.60;;
69534;SDS011;56754;51.568;5.048;2023-06-26T05:36:27;10.65;;;2.58;;
69534;SDS011;56754;51.568;5.048;2023-06-26T05:38:54;7.43;;;2.38;;
69534;SDS011;56754;51.568;5.048;2023-06-26T05:41:19;8.07;;;2.13;;
69534;SDS011;56754;51.568;5.048;2023-06-26T05:43:45;7.47;;;2.13;;
69534;SDS011;56754;51.568;5.048;2023-06-26T05:46:10;7.33;;;2.30;;
69534;SDS011;56754;51.568;5.048;2023-06-26T05:48:36;8.00;;;2.10;;
69534;SDS011;56754;51.568;5.048;2023-06-26T05:51:01;11.03;;;2.53;;
69534;SDS011;56754;51.568;5.048;2023-06-26T05:53:27;9.13;;;2.20;;
69534;SDS011;56754;51.568;5.048;2023-06-26T05:55:52;7.77;;;2.23;;
69534;SDS011;56754;51.568;5.048;2023-06-26T05:58:18;9.98;;;2.25;;
69534;SDS011;56754;51.568;5.048;2023-06-26T06:00:46;7.70;;;2.20;;
69534;SDS011;56754;51.568;5.048;2023-06-26T06:03:11;7.13;;;2.00;;
69534;SDS011;56754;51.568;5.048;2023-06-26T06:05:36;6.97;;;2.30;;
69534;SDS011;56754;51.568;5.048;2023-06-26T06:08:02;8.43;;;2.57;;
69534;SDS011;56754;51.568;5.048;2023-06-26T06:10:27;8.43;;;2.20;;
69534;SDS011;56754;51.568;5.048;2023-06-26T06:12:52;7.67;;;2.00;;
69534;SDS011;56754;51.568;5.048;2023-06-26T06:15:18;6.20;;;1.87;;
69534;SDS011;56754;51.568;5.048;2023-06-26T06:17:43;6.57;;;1.95;;
69534;SDS011;56754;51.568;5.048;2023-06-26T06:20:09;5.53;;;1.93;;
69534;SDS011;56754;51.568;5.048;2023-06-26T06:22:34;9.17;;;1.93;;
69534;SDS011;56754;51.568;5.048;2023-06-26T06:24:59;6.37;;;2.00;;
69534;SDS011;56754;51.568;5.048;2023-06-26T06:27:25;5.93;;;2.00;;
69534;SDS011;56754;51.568;5.048;2023-06-26T06:29:50;7.77;;;1.63;;
69534;SDS011;56754;51.568;5.048;2023-06-26T06:32:15;7.67;;;1.93;;
69534;SDS011;56754;51.568;5.048;2023-06-26T06:34:41;7.37;;;1.83;;
69534;SDS011;56754;51.568;5.048;2023-06-26T06:37:06;5.63;;;1.70;;
69534;SDS011;56754;51.568;5.048;2023-06-26T06:39:31;6.37;;;1.77;;
69534;SDS011;56754;51.568;5.048;2023-06-26T06:41:57;5.55;;;1.98;;
69534;SDS011;56754;51.568;5.048;2023-06-26T06:44:22;6.77;;;2.10;;
69534;SDS011;56754;51.568;5.048;2023-06-26T06:46:47;7.70;;;1.80;;
69534;SDS011;56754;51.568;5.048;2023-06-26T06:49:13;5.77;;;1.93;;
69534;SDS011;56754;51.568;5.048;2023-06-26T06:51:38;5.65;;;1.85;;
69534;SDS011;56754;51.568;5.048;2023-06-26T06:54:04;7.57;;;1.60;;
69534;SDS011;56754;51.568;5.048;2023-06-26T06:56:29;5.13;;;1.70;;
69534;SDS011;56754;51.568;5.048;2023-06-26T06:58:54;5.23;;;1.30;;
69534;SDS011;56754;51.568;5.048;2023-06-26T07:01:20;5.60;;;1.80;;
69534;SDS011;56754;51.568;5.048;2023-06-26T07:03:45;6.47;;;1.43;;
69534;SDS011;56754;51.568;5.048;2023-06-26T07:06:10;5.80;;;1.80;;
69534;SDS011;56754;51.568;5.048;2023-06-26T07:08:36;5.83;;;1.80;;
69534;SDS011;56754;51.568;5.048;2023-06-26T07:11:01;3.90;;;1.25;;
69534;SDS011;56754;51.568;5.048;2023-06-26T07:13:26;4.57;;;1.20;;
69534;SDS011;56754;51.568;5.048;2023-06-26T07:15:52;5.33;;;1.40;;
69534;SDS011;56754;51.568;5.048;2023-06-26T07:18:17;8.80;;;1.63;;
69534;SDS011;56754;51.568;5.048;2023-06-26T07:20:42;5.23;;;1.50;;
69534;SDS011;56754;51.568;5.048;2023-06-26T07:23:08;4.35;;;1.25;;
69534;SDS011;56754;51.568;5.048;2023-06-26T07:25:33;6.37;;;1.50;;
69534;SDS011;56754;51.568;5.048;2023-06-26T07:27:59;3.70;;;1.10;;
69534;SDS011;56754;51.568;5.048;2023-06-26T07:30:24;5.10;;;1.30;;
69534;SDS011;56754;51.568;5.048;2023-06-26T07:32:50;5.27;;;1.10;;
69534;SDS011;56754;51.568;5.048;2023-06-26T07:35:15;4.70;;;1.20;;
69534;SDS011;56754;51.568;5.048;2023-06-26T07:37:41;6.00;;;1.20;;
69534;SDS011;56754;51.568;5.048;2023-06-26T07:40:06;4.70;;;1.30;;
69534;SDS011;56754;51.568;5.048;2023-06-26T07:42:32;5.20;;;1.20;;
69534;SDS011;56754;51.568;5.048;2023-06-26T07:44:57;3.97;;;1.00;;
69534;SDS011;56754;51.568;5.048;2023-06-26T07:47:23;4.23;;;1.07;;
69534;SDS011;56754;51.568;5.048;2023-06-26T07:49:48;3.13;;;0.80;;
69534;SDS011;56754;51.568;5.048;2023-06-26T07:52:14;4.53;;;1.10;;
69534;SDS011;56754;51.568;5.048;2023-06-26T07:54:40;6.03;;;1.23;;
69534;SDS011;56754;51.568;5.048;2023-06-26T07:57:05;2.50;;;0.87;;
69534;SDS011;56754;51.568;5.048;2023-06-26T07:59:31;3.72;;;0.80;;
69534;SDS011;56754;51.568;5.048;2023-06-26T08:01:57;2.27;;;0.90;;
69534;SDS011;56754;51.568;5.048;2023-06-26T08:04:23;4.07;;;0.93;;
69534;SDS011;56754;51.568;5.048;2023-06-26T08:06:51;4.05;;;0.95;;
69534;SDS011;56754;51.568;5.048;2023-06-26T08:09:18;4.55;;;1.00;;
69534;SDS011;56754;51.568;5.048;2023-06-26T08:11:45;4.82;;;1.17;;
69534;SDS011;56754;51.568;5.048;2023-06-26T08:14:10;4.40;;;1.00;;
69534;SDS011;56754;51.568;5.048;2023-06-26T08:16:36;3.93;;;0.87;;
69534;SDS011;56754;51.568;5.048;2023-06-26T08:19:01;4.13;;;1.10;;
69534;SDS011;56754;51.568;5.048;2023-06-26T08:21:26;4.10;;;1.20;;
69534;SDS011;56754;51.568;5.048;2023-06-26T08:23:52;2.33;;;0.80;;
69534;SDS011;56754;51.568;5.048;2023-06-26T08:26:17;4.63;;;1.20;;
69534;SDS011;56754;51.568;5.048;2023-06-26T08:28:42;4.40;;;1.10;;
69534;SDS011;56754;51.568;5.048;2023-06-26T08:31:08;4.13;;;0.87;;
69534;SDS011;56754;51.568;5.048;2023-06-26T08:33:33;3.87;;;1.07;;
69534;SDS011;56754;51.568;5.048;2023-06-26T08:35:58;4.27;;;1.20;;
69534;SDS011;56754;51.568;5.048;2023-06-26T08:38:24;4.33;;;0.90;;
69534;SDS011;56754;51.568;5.048;2023-06-26T08:40:49;4.03;;;1.00;;
69534;SDS011;56754;51.568;5.048;2023-06-26T08:43:14;3.83;;;1.10;;
69534;SDS011;56754;51.568;5.048;2023-06-26T08:45:40;4.22;;;1.05;;
69534;SDS011;56754;51.568;5.048;2023-06-26T08:48:08;3.67;;;1.00;;
69534;SDS011;56754;51.568;5.048;2023-06-26T08:50:35;4.00;;;1.00;;
69534;SDS011;56754;51.568;5.048;2023-06-26T08:53:28;4.55;;;1.15;;
69534;SDS011;56754;51.568;5.048;2023-06-26T08:55:54;3.10;;;0.70;;
69534;SDS011;56754;51.568;5.048;2023-06-26T08:58:22;4.00;;;0.98;;
69534;SDS011;56754;51.568;5.048;2023-06-26T09:00:48;3.45;;;1.00;;
69534;SDS011;56754;51.568;5.048;2023-06-26T09:03:14;4.10;;;1.00;;
69534;SDS011;56754;51.568;5.048;2023-06-26T09:05:40;3.00;;;0.70;;
69534;SDS011;56754;51.568;5.048;2023-06-26T09:08:06;3.77;;;1.17;;
69534;SDS011;56754;51.568;5.048;2023-06-26T09:10:32;3.23;;;0.80;;
69534;SDS011;56754;51.568;5.048;2023-06-26T09:12:57;4.22;;;0.98;;
69534;SDS011;56754;51.568;5.048;2023-06-26T09:15:23;4.43;;;1.10;;
69534;SDS011;56754;51.568;5.048;2023-06-26T09:17:49;4.10;;;1.10;;
69534;SDS011;56754;51.568;5.048;2023-06-26T09:20:15;3.47;;;0.70;;
69534;SDS011;56754;51.568;5.048;2023-06-26T09:22:40;3.83;;;0.80;;
69534;SDS011;56754;51.568;5.048;2023-06-26T09:25:07;3.13;;;0.90;;
69534;SDS011;56754;51.568;5.048;2023-06-26T09:27:34;3.47;;;0.80;;
69534;SDS011;56754;51.568;5.048;2023-06-26T09:30:01;3.38;;;0.80;;
69534;SDS011;56754;51.568;5.048;2023-06-26T09:32:30;3.22;;;0.68;;
69534;SDS011;56754;51.568;5.048;2023-06-26T09:34:55;3.77;;;0.80;;
69534;SDS011;56754;51.568;5.048;2023-06-26T09:37:21;3.67;;;0.87;;
69534;SDS011;56754;51.568;5.048;2023-06-26T09:39:46;3.47;;;0.90;;
69534;SDS011;56754;51.568;5.048;2023-06-26T09:42:14;2.60;;;0.80;;
69534;SDS011;56754;51.568;5.048;2023-06-26T09:44:49;3.38;;;0.88;;
69534;SDS011;56754;51.568;5.048;2023-06-26T09:47:21;2.40;;;0.75;;
69534;SDS011;56754;51.568;5.048;2023-06-26T09:49:46;3.08;;;0.85;;
69534;SDS011;56754;51.568;5.048;2023-06-26T09:52:15;4.63;;;0.90;;
69534;SDS011;56754;51.568;5.048;2023-06-26T09:54:42;2.58;;;0.50;;
69534;SDS011;56754;51.568;5.048;2023-06-26T09:57:08;2.85;;;0.70;;
69534;SDS011;56754;51.568;5.048;2023-06-26T09:59:35;3.00;;;0.70;;
69534;SDS011;56754;51.568;5.048;2023-06-26T10:02:00;2.87;;;0.67;;
69534;SDS011;56754;51.568;5.048;2023-06-26T10:04:26;1.97;;;0.67;;
69534;SDS011;56754;51.568;5.048;2023-06-26T10:06:52;2.53;;;0.70;;
69534;SDS011;56754;51.568;5.048;2023-06-26T10:09:20;3.03;;;0.90;;
69534;SDS011;56754;51.568;5.048;2023-06-26T10:11:55;3.15;;;0.60;;
69534;SDS011;56754;51.568;5.048;2023-06-26T10:14:23;2.20;;;0.70;;
69534;SDS011;56754;51.568;5.048;2023-06-26T10:16:57;2.88;;;0.70;;
69534;SDS011;56754;51.568;5.048;2023-06-26T10:19:24;2.95;;;0.80;;
69534;SDS011;56754;51.568;5.048;2023-06-26T10:21:52;3.45;;;0.80;;
69534;SDS011;56754;51.568;5.048;2023-06-26T10:24:18;2.17;;;0.60;;
69534;SDS011;56754;51.568;5.048;2023-06-26T10:26:45;3.57;;;0.70;;
69534;SDS011;56754;51.568;5.048;2023-06-26T10:29:15;2.30;;;0.68;;
69534;SDS011;56754;51.568;5.048;2023-06-26T10:31:44;3.35;;;0.80;;
69534;SDS011;56754;51.568;5.048;2023-06-26T10:34:16;2.95;;;0.60;;
69534;SDS011;56754;51.568;5.048;2023-06-26T10:36:42;2.53;;;0.60;;
69534;SDS011;56754;51.568;5.048;2023-06-26T10:39:07;2.30;;;0.67;;
69534;SDS011;56754;51.568;5.048;2023-06-26T10:41:36;3.07;;;0.60;;
69534;SDS011;56754;51.568;5.048;2023-06-26T10:44:10;2.17;;;0.70;;
69534;SDS011;56754;51.568;5.048;2023-06-26T10:49:15;2.85;;;0.70;;
69534;SDS011;56754;51.568;5.048;2023-06-26T10:51:45;4.20;;;0.80;;
69534;SDS011;56754;51.568;5.048;2023-06-26T10:54:13;2.38;;;0.60;;
69534;SDS011;56754;51.568;5.048;2023-06-26T10:56:40;3.30;;;0.70;;
69534;SDS011;56754;51.568;5.048;2023-06-26T10:59:18;2.33;;;0.70;;
69534;SDS011;56754;51.568;5.048;2023-06-26T11:01:46;2.55;;;0.68;;
69534;SDS011;56754;51.568;5.048;2023-06-26T11:04:18;2.77;;;0.80;;
69534;SDS011;56754;51.568;5.048;2023-06-26T11:07:20;2.75;;;0.60;;
69534;SDS011;56754;51.568;5.048;2023-06-26T11:10:00;2.47;;;0.70;;
69534;SDS011;56754;51.568;5.048;2023-06-26T11:12:34;3.13;;;0.68;;
69534;SDS011;56754;51.568;5.048;2023-06-26T11:15:07;2.42;;;0.57;;
69534;SDS011;56754;51.568;5.048;2023-06-26T11:17:37;2.57;;;0.70;;
69534;SDS011;56754;51.568;5.048;2023-06-26T11:20:06;2.55;;;0.75;;
69534;SDS011;56754;51.568;5.048;2023-06-26T11:22:32;3.15;;;0.85;;
69534;SDS011;56754;51.568;5.048;2023-06-26T11:25:00;2.77;;;0.60;;
69534;SDS011;56754;51.568;5.048;2023-06-26T11:30:06;3.65;;;0.73;;
69534;SDS011;56754;51.568;5.048;2023-06-26T11:32:33;3.08;;;0.93;;
69534;SDS011;56754;51.568;5.048;2023-06-26T11:34:59;2.35;;;0.70;;
69534;SDS011;56754;51.568;5.048;2023-06-26T11:37:25;3.00;;;0.90;;
69534;SDS011;56754;51.568;5.048;2023-06-26T11:39:50;2.80;;;0.83;;
69534;SDS011;56754;51.568;5.048;2023-06-26T11:42:16;3.88;;;0.80;;
69534;SDS011;56754;51.568;5.048;2023-06-26T11:44:41;3.13;;;0.83;;
69534;SDS011;56754;51.568;5.048;2023-06-26T11:47:07;3.05;;;0.70;;
69534;SDS011;56754;51.568;5.048;2023-06-26T11:49:33;2.87;;;0.87;;
69534;SDS011;56754;51.568;5.048;2023-06-26T11:51:58;2.70;;;0.80;;
69534;SDS011;56754;51.568;5.048;2023-06-26T11:54:27;2.47;;;0.82;;
69534;SDS011;56754;51.568;5.048;2023-06-26T11:56:53;2.10;;;0.70;;
69534;SDS011;56754;51.568;5.048;2023-06-26T11:59:20;3.00;;;0.70;;
69534;SDS011;56754;51.568;5.048;2023-06-26T12:01:45;2.33;;;0.70;;
69534;SDS011;56754;51.568;5.048;2023-06-26T12:04:11;2.40;;;0.80;;
69534;SDS011;56754;51.568;5.048;2023-06-26T12:06:40;3.38;;;0.80;;
69534;SDS011;56754;51.568;5.048;2023-06-26T12:09:10;3.03;;;0.70;;
69534;SDS011;56754;51.568;5.048;2023-06-26T12:11:38;3.05;;;0.60;;
69534;SDS011;56754;51.568;5.048;2023-06-26T12:14:05;3.00;;;0.93;;
69534;SDS011;56754;51.568;5.048;2023-06-26T12:16:32;2.57;;;0.63;;
69534;SDS011;56754;51.568;5.048;2023-06-26T12:18:59;4.65;;;0.88;;
69534;SDS011;56754;51.568;5.048;2023-06-26T12:24:03;1.95;;;0.70;;
69534;SDS011;56754;51.568;5.048;2023-06-26T12:26:29;3.35;;;0.80;;
69534;SDS011;56754;51.568;5.048;2023-06-26T12:29:05;4.27;;;0.60;;
69534;SDS011;56754;51.568;5.048;2023-06-26T12:31:32;2.10;;;0.75;;
69534;SDS011;56754;51.568;5.048;2023-06-26T12:33:58;3.97;;;0.70;;
69534;SDS011;56754;51.568;5.048;2023-06-26T12:36:24;3.20;;;0.87;;
69534;SDS011;56754;51.568;5.048;2023-06-26T12:38:49;2.53;;;0.70;;
69534;SDS011;56754;51.568;5.048;2023-06-26T12:41:15;3.20;;;0.80;;
69534;SDS011;56754;51.568;5.048;2023-06-26T12:43:41;3.78;;;0.95;;
69534;SDS011;56754;51.568;5.048;2023-06-26T12:46:07;2.75;;;0.65;;
69534;SDS011;56754;51.568;5.048;2023-06-26T12:48:40;3.47;;;0.80;;
69534;SDS011;56754;51.568;5.048;2023-06-26T12:51:08;5.13;;;0.70;;
69534;SDS011;56754;51.568;5.048;2023-06-26T12:53:37;3.17;;;0.85;;
69534;SDS011;56754;51.568;5.048;2023-06-26T12:56:03;2.72;;;0.80;;
69534;SDS011;56754;51.568;5.048;2023-06-26T12:58:28;2.40;;;0.70;;
69534;SDS011;56754;51.568;5.048;2023-06-26T13:00:53;2.08;;;0.60;;
69534;SDS011;56754;51.568;5.048;2023-06-26T13:03:19;2.70;;;0.70;;
69534;SDS011;56754;51.568;5.048;2023-06-26T13:05:44;2.37;;;0.70;;
69534;SDS011;56754;51.568;5.048;2023-06-26T13:08:10;2.37;;;0.70;;
69534;SDS011;56754;51.568;5.048;2023-06-26T13:10:35;3.87;;;0.80;;
69534;SDS011;56754;51.568;5.048;2023-06-26T13:13:00;2.50;;;0.60;;
69534;SDS011;56754;51.568;5.048;2023-06-26T13:15:26;3.13;;;0.67;;
69534;SDS011;56754;51.568;5.048;2023-06-26T13:17:51;3.30;;;0.70;;
69534;SDS011;56754;51.568;5.048;2023-06-26T13:20:16;3.27;;;0.70;;
69534;SDS011;56754;51.568;5.048;2023-06-26T13:22:42;2.13;;;0.60;;
69534;SDS011;56754;51.568;5.048;2023-06-26T13:25:07;4.37;;;1.00;;
69534;SDS011;56754;51.568;5.048;2023-06-26T13:27:33;2.25;;;0.75;;
69534;SDS011;56754;51.568;5.048;2023-06-26T13:29:58;2.63;;;0.90;;
69534;SDS011;56754;51.568;5.048;2023-06-26T13:32:23;2.87;;;0.70;;
69534;SDS011;56754;51.568;5.048;2023-06-26T13:34:49;2.93;;;0.70;;
69534;SDS011;56754;51.568;5.048;2023-06-26T13:37:14;3.33;;;0.80;;
69534;SDS011;56754;51.568;5.048;2023-06-26T13:39:40;3.07;;;0.77;;
69534;SDS011;56754;51.568;5.048;2023-06-26T13:42:05;2.47;;;0.80;;
69534;SDS011;56754;51.568;5.048;2023-06-26T13:44:30;2.57;;;0.67;;
69534;SDS011;56754;51.568;5.048;2023-06-26T13:46:56;3.50;;;0.65;;
69534;SDS011;56754;51.568;5.048;2023-06-26T13:49:21;3.17;;;0.70;;
69534;SDS011;56754;51.568;5.048;2023-06-26T13:51:46;2.60;;;0.80;;
69534;SDS011;56754;51.568;5.048;2023-06-26T13:54:12;3.93;;;0.80;;
69534;SDS011;56754;51.568;5.048;2023-06-26T13:56:37;2.70;;;0.67;;
69534;SDS011;56754;51.568;5.048;2023-06-26T13:59:03;3.22;;;0.73;;
69534;SDS011;56754;51.568;5.048;2023-06-26T14:01:28;3.07;;;0.70;;
69534;SDS011;56754;51.568;5.048;2023-06-26T14:03:54;2.23;;;0.67;;
69534;SDS011;56754;51.568;5.048;2023-06-26T14:06:19;3.10;;;0.70;;
69534;SDS011;56754;51.568;5.048;2023-06-26T14:08:45;2.77;;;0.70;;
69534;SDS011;56754;51.568;5.048;2023-06-26T14:11:10;3.10;;;0.60;;
69534;SDS011;56754;51.568;5.048;2023-06-26T14:13:35;2.80;;;0.90;;
69534;SDS011;56754;51.568;5.048;2023-06-26T14:16:01;2.63;;;0.70;;
69534;SDS011;56754;51.568;5.048;2023-06-26T14:18:26;3.07;;;0.70;;
69534;SDS011;56754;51.568;5.048;2023-06-26T14:20:51;1.97;;;0.70;;
69534;SDS011;56754;51.568;5.048;2023-06-26T14:23:17;2.10;;;0.50;;
69534;SDS011;56754;51.568;5.048;2023-06-26T14:25:42;2.73;;;0.70;;
69534;SDS011;56754;51.568;5.048;2023-06-26T14:28:07;2.17;;;0.60;;
69534;SDS011;56754;51.568;5.048;2023-06-26T14:30:32;2.67;;;0.80;;
69534;SDS011;56754;51.568;5.048;2023-06-26T14:32:58;2.00;;;0.70;;
69534;SDS011;56754;51.568;5.048;2023-06-26T14:35:23;4.32;;;0.80;;
69534;SDS011;56754;51.568;5.048;2023-06-26T14:37:48;3.77;;;0.70;;
69534;SDS011;56754;51.568;5.048;2023-06-26T14:40:14;2.73;;;0.70;;
69534;SDS011;56754;51.568;5.048;2023-06-26T14:42:39;2.63;;;0.60;;
69534;SDS011;56754;51.568;5.048;2023-06-26T14:45:05;2.10;;;0.70;;
69534;SDS011;56754;51.568;5.048;2023-06-26T14:47:30;3.17;;;0.70;;
69534;SDS011;56754;51.568;5.048;2023-06-26T14:49:56;4.00;;;0.70;;
69534;SDS011;56754;51.568;5.048;2023-06-26T14:52:21;2.47;;;0.63;;
69534;SDS011;56754;51.568;5.048;2023-06-26T14:54:46;2.47;;;0.80;;
69534;SDS011;56754;51.568;5.048;2023-06-26T14:57:12;2.85;;;0.75;;
69534;SDS011;56754;51.568;5.048;2023-06-26T14:59:37;3.47;;;0.80;;
69534;SDS011;56754;51.568;5.048;2023-06-26T15:02:02;3.00;;;0.80;;
69534;SDS011;56754;51.568;5.048;2023-06-26T15:04:28;1.77;;;0.60;;